KIXA

Halifax-Northampton Regional Airport

Roanoke Rapids, North Carolina, USA
METAR KIXA 121825Z AUTO 00000KT 10SM CLR 08/M01 A3017 RMK AO2
Observed Flight Rules
Dec-12 @ 18:25 UTC (32 minutes ago) Visual Flight Rules
Visibility Clouds
10 miles
  • Clear skies
Temperatures Readings
Current 8°C / 46°F
Dewpoint -1°C / 30°F
Humidity 53%
Altimeter 30.17" Hg
Pressure 1022 hPa
Elevation 44
METAR KIXA 121825Z AUTO 00000KT 10SM CLR 08/M01 A3017 RMK AO2
Observed Flight Rules
Dec-12 @ 18:25 UTC
(32 minutes ago)
VFR
Clouds
  • Clear skies
Temperature Dewpoint
8°C / 46°F -1°C / 30°F
Humidity Altimeter Pressure
53% 30.17" Hg 1022 hPa